Time;durP1;ratioP1;P1;durP2;ratioP2;P2;SDS_P1;SDS_P2;PMS_P1;PMS_P2;Temp;Humidity;BMP_temperature;BMP_pressure;BME280_temperature;BME280_humidity;BME280_pressure;Samples;Min_cycle;Max_cycle;Signal;HPM_P1;HPM_P2
2021/10/04 00:00:42;;;;;;;2.58;1.20;;;16.10;82.10;;;;;;6146840;28;20900;-75
2021/10/04 00:03:44;;;;;;;2.33;1.60;;;16.10;82.20;;;;;;6146984;28;20997;-75
2021/10/04 00:06:46;;;;;;;2.30;1.23;;;16.10;82.50;;;;;;6159039;28;20424;-75
2021/10/04 00:09:48;;;;;;;4.22;1.30;;;16.10;82.40;;;;;;6174983;28;20856;-76
2021/10/04 00:12:50;;;;;;;2.10;1.20;;;16.00;82.50;;;;;;6175422;28;20464;-75
2021/10/04 00:15:53;;;;;;;1.65;1.10;;;16.10;82.60;;;;;;6170192;28;20588;-76
2021/10/04 00:18:55;;;;;;;3.70;1.05;;;16.00;82.70;;;;;;6174817;28;20522;-76
2021/10/04 00:21:57;;;;;;;1.67;1.40;;;16.00;82.60;;;;;;6174540;28;20499;-76
2021/10/04 00:24:59;;;;;;;1.58;1.08;;;16.00;82.60;;;;;;6175107;28;20443;-76
2021/10/04 00:28:01;;;;;;;1.73;1.53;;;15.90;83.00;;;;;;6175405;28;20467;-75
2021/10/04 00:31:05;;;;;;;2.88;1.60;;;15.90;82.90;;;;;;6180694;28;20424;-76
2021/10/04 00:34:06;;;;;;;3.10;1.15;;;15.80;83.40;;;;;;6206800;28;20416;-75
2021/10/04 00:37:08;;;;;;;2.60;1.10;;;15.80;83.30;;;;;;6223349;28;20637;-76
2021/10/04 00:40:18;;;;;;;2.25;1.50;;;15.80;83.20;;;;;;6222922;28;20495;-76
2021/10/04 00:43:21;;;;;;;4.10;1.57;;;15.80;83.30;;;;;;6222789;28;20421;-76
2021/10/04 00:46:24;;;;;;;1.80;1.55;;;15.80;83.70;;;;;;6194700;28;20422;-76
2021/10/04 00:49:26;;;;;;;2.58;1.40;;;15.70;84.20;;;;;;6198185;28;20839;-76
2021/10/04 00:52:28;;;;;;;2.45;1.38;;;15.70;84.00;;;;;;6199051;28;20457;-76
2021/10/04 00:55:30;;;;;;;3.55;1.50;;;15.70;83.80;;;;;;6198375;28;20508;-76
2021/10/04 00:58:33;;;;;;;2.78;1.40;;;15.70;83.90;;;;;;6198278;28;20508;-76
2021/10/04 01:01:36;;;;;;;4.97;1.33;;;15.70;83.80;;;;;;6197447;28;21009;-76
2021/10/04 01:04:38;;;;;;;2.07;1.10;;;15.60;84.00;;;;;;6198778;28;20528;-76
2021/10/04 01:07:40;;;;;;;4.88;1.50;;;15.70;84.20;;;;;;6197730;28;20986;-76
2021/10/04 01:10:43;;;;;;;2.83;1.60;;;15.60;83.80;;;;;;6197888;28;20493;-76
2021/10/04 01:13:44;;;;;;;6.00;1.70;;;15.60;83.90;;;;;;6198066;28;20890;-76
2021/10/04 01:16:48;;;;;;;2.72;1.50;;;15.50;84.30;;;;;;6198503;28;20438;-76
2021/10/04 01:19:50;;;;;;;3.85;1.60;;;15.60;84.20;;;;;;6172504;28;20471;-76
2021/10/04 01:22:54;;;;;;;2.13;1.65;;;15.50;84.10;;;;;;6190023;28;20950;-76
2021/10/04 01:25:57;;;;;;;9.27;1.98;;;15.40;84.40;;;;;;6197617;28;20994;-76
2021/10/04 01:28:59;;;;;;;2.97;2.50;;;15.30;84.60;;;;;;6197367;28;20438;-76
2021/10/04 01:32:01;;;;;;;4.38;2.45;;;15.30;85.20;;;;;;6202262;28;20451;-76
2021/10/04 01:35:04;;;;;;;5.80;2.40;;;15.20;85.00;;;;;;6199618;28;20509;-76
2021/10/04 01:38:08;;;;;;;6.40;2.13;;;15.20;85.40;;;;;;6197379;28;21021;-76
2021/10/04 01:41:10;;;;;;;2.47;1.90;;;15.10;85.60;;;;;;6196445;28;20417;-76
2021/10/04 01:44:12;;;;;;;2.10;1.30;;;15.00;85.40;;;;;;6197644;28;20666;-76
2021/10/04 01:47:14;;;;;;;3.28;1.60;;;15.00;85.80;;;;;;6197146;28;20488;-76
2021/10/04 01:50:17;;;;;;;3.42;1.20;;;14.90;86.00;;;;;;6196798;28;20861;-76
2021/10/04 01:53:20;;;;;;;2.83;1.60;;;14.90;85.80;;;;;;6196957;28;20480;-76
2021/10/04 01:56:22;;;;;;;2.05;1.50;;;14.80;85.40;;;;;;6197326;28;20438;-76
2021/10/04 01:59:24;;;;;;;3.72;1.08;;;14.80;86.30;;;;;;6196328;28;20465;-76
2021/10/04 02:02:26;;;;;;;2.53;1.30;;;14.80;86.10;;;;;;6196674;28;20509;-76
2021/10/04 02:05:29;;;;;;;4.05;1.70;;;14.80;86.70;;;;;;6196959;28;20497;-76
2021/10/04 02:08:33;;;;;;;3.92;1.50;;;14.70;86.50;;;;;;6197116;28;20509;-76
2021/10/04 02:11:34;;;;;;;2.47;1.30;;;14.70;86.60;;;;;;6196686;28;21098;-76
2021/10/04 02:14:36;;;;;;;1.40;1.10;;;14.80;86.50;;;;;;6190982;28;20508;-76
2021/10/04 02:17:38;;;;;;;3.88;1.27;;;14.70;86.30;;;;;;6196658;28;20442;-76
2021/10/04 02:20:42;;;;;;;7.05;2.80;;;14.70;86.00;;;;;;6195969;28;20609;-75
2021/10/04 02:23:46;;;;;;;1.75;1.40;;;14.70;86.70;;;;;;6196328;28;20923;-76
2021/10/04 02:26:47;;;;;;;4.03;1.58;;;14.70;86.70;;;;;;6192255;28;20796;-76
2021/10/04 02:29:49;;;;;;;2.38;1.38;;;14.70;86.60;;;;;;6195869;28;20422;-76
2021/10/04 02:32:52;;;;;;;4.72;1.50;;;14.60;86.10;;;;;;6200313;28;20618;-76
2021/10/04 02:35:53;;;;;;;2.90;1.10;;;14.60;86.30;;;;;;6198870;28;20513;-76
2021/10/04 02:38:57;;;;;;;3.70;1.13;;;14.70;86.90;;;;;;6195342;28;20787;-76
2021/10/04 02:41:58;;;;;;;2.60;1.40;;;14.60;86.30;;;;;;6195881;28;20895;-76
2021/10/04 02:45:01;;;;;;;2.70;1.20;;;14.70;86.60;;;;;;6195995;28;20482;-76
2021/10/04 02:48:04;;;;;;;2.97;1.15;;;14.70;86.80;;;;;;6196203;28;20938;-76
2021/10/04 02:51:06;;;;;;;4.93;2.08;;;14.70;86.20;;;;;;6195660;28;20788;-76
2021/10/04 02:54:09;;;;;;;1.95;1.48;;;14.70;86.10;;;;;;6195704;28;20501;-76
2021/10/04 02:57:11;;;;;;;3.42;1.63;;;14.70;86.10;;;;;;6196129;28;20418;-76
2021/10/04 03:00:15;;;;;;;2.23;1.13;;;14.70;85.90;;;;;;6195245;28;20434;-76
2021/10/04 03:03:17;;;;;;;2.53;1.67;;;14.70;86.10;;;;;;6195784;28;20423;-76
2021/10/04 03:06:19;;;;;;;2.63;1.50;;;14.70;86.00;;;;;;6195686;28;20444;-76
2021/10/04 03:09:22;;;;;;;3.17;1.42;;;14.70;86.00;;;;;;6195306;28;20497;-76
2021/10/04 03:12:24;;;;;;;4.40;1.80;;;14.70;86.00;;;;;;6195989;28;20801;-76
2021/10/04 03:15:26;;;;;;;3.28;1.40;;;14.70;85.90;;;;;;6190297;28;20521;-76
2021/10/04 03:18:28;;;;;;;1.90;1.27;;;14.70;85.70;;;;;;6195138;28;20468;-76
2021/10/04 03:21:30;;;;;;;3.67;1.23;;;14.70;85.50;;;;;;6195619;28;20473;-76
2021/10/04 03:24:34;;;;;;;4.53;1.40;;;14.60;85.20;;;;;;6196054;28;20438;-76
2021/10/04 03:27:36;;;;;;;2.35;1.35;;;14.60;85.60;;;;;;6195425;28;20473;-76
2021/10/04 03:30:38;;;;;;;12.45;5.22;;;14.50;86.30;;;;;;6195333;28;20457;-76
2021/10/04 03:33:39;;;;;;;4.10;1.23;;;14.60;87.90;;;;;;6199465;28;20431;-76
2021/10/04 03:36:42;;;;;;;2.00;1.50;;;14.60;86.60;;;;;;6216216;28;20519;-76
2021/10/04 03:39:45;;;;;;;4.68;1.65;;;14.60;86.40;;;;;;6220073;28;20421;-77
2021/10/04 03:42:48;;;;;;;1.75;1.50;;;14.60;85.90;;;;;;6224073;28;20423;-77
2021/10/04 03:45:50;;;;;;;2.25;1.55;;;14.70;86.10;;;;;;6201349;28;20957;-77
2021/10/04 03:48:52;;;;;;;2.85;1.70;;;14.60;85.90;;;;;;6201195;28;20485;-77
2021/10/04 03:51:54;;;;;;;4.45;1.92;;;14.60;86.30;;;;;;6202768;28;20560;-77
2021/10/04 03:54:57;;;;;;;2.20;1.60;;;14.70;86.50;;;;;;6201550;28;20908;-77
2021/10/04 03:57:59;;;;;;;3.20;2.17;;;14.60;86.50;;;;;;6200939;28;20939;-77
2021/10/04 04:01:01;;;;;;;3.00;2.20;;;14.70;86.70;;;;;;6200834;28;20473;-77
2021/10/04 04:04:03;;;;;;;3.13;2.27;;;14.70;86.60;;;;;;6201701;28;20465;-77
2021/10/04 04:07:07;;;;;;;4.88;3.13;;;14.70;86.60;;;;;;6200382;28;20465;-77
2021/10/04 04:10:12;;;;;;;6.38;4.38;;;14.70;86.70;;;;;;6200573;28;20430;-77
2021/10/04 04:13:14;;;;;;;5.50;4.20;;;14.70;86.60;;;;;;6201318;28;20442;-77
2021/10/04 04:16:16;;;;;;;4.25;3.25;;;14.70;86.70;;;;;;6201096;28;20462;-77
2021/10/04 04:19:18;;;;;;;4.70;2.70;;;14.70;86.60;;;;;;6200079;28;20430;-77
2021/10/04 04:22:20;;;;;;;3.80;2.67;;;14.80;86.70;;;;;;6200541;28;20426;-77
2021/10/04 04:25:23;;;;;;;5.15;2.72;;;14.80;86.40;;;;;;6200426;28;20502;-77
2021/10/04 04:28:25;;;;;;;2.70;2.30;;;14.80;86.40;;;;;;6201196;28;20434;-77
2021/10/04 04:31:27;;;;;;;6.68;3.63;;;14.80;86.50;;;;;;6201420;28;20513;-77
2021/10/04 04:34:29;;;;;;;5.38;3.25;;;14.80;86.50;;;;;;6202124;28;20864;-76
2021/10/04 04:37:31;;;;;;;4.10;3.25;;;14.90;86.60;;;;;;6204479;28;20573;-77
2021/10/04 04:40:34;;;;;;;5.78;3.50;;;14.80;86.30;;;;;;6201428;28;20469;-77
2021/10/04 04:43:37;;;;;;;6.75;3.17;;;14.90;86.60;;;;;;6201835;28;20414;-77
2021/10/04 04:46:38;;;;;;;8.93;3.30;;;14.90;86.60;;;;;;6201720;28;20422;-77
2021/10/04 04:49:40;;;;;;;4.13;3.38;;;14.90;86.70;;;;;;6202408;28;20501;-77
2021/10/04 04:52:42;;;;;;;4.68;2.60;;;14.90;86.70;;;;;;6201834;28;20493;-77
2021/10/04 04:55:45;;;;;;;3.95;2.25;;;14.80;86.70;;;;;;6201117;28;20418;-77
2021/10/04 04:58:48;;;;;;;4.85;2.22;;;14.80;86.30;;;;;;6201373;28;21038;-76
2021/10/04 05:01:50;;;;;;;3.03;1.80;;;14.80;86.70;;;;;;6198045;28;20425;-76
2021/10/04 05:04:51;;;;;;;2.43;1.50;;;14.70;86.80;;;;;;6198263;28;20520;-76
2021/10/04 05:07:53;;;;;;;4.43;1.88;;;14.70;86.40;;;;;;6198521;28;20488;-76
2021/10/04 05:10:56;;;;;;;2.10;1.60;;;14.70;86.70;;;;;;6197652;28;20900;-76
2021/10/04 05:13:58;;;;;;;2.50;1.65;;;14.70;86.90;;;;;;6194161;28;20918;-76
2021/10/04 05:17:00;;;;;;;4.25;1.80;;;14.60;86.80;;;;;;6196515;28;20522;-76
2021/10/04 05:20:02;;;;;;;2.45;1.45;;;14.60;86.90;;;;;;6197945;28;20434;-76
2021/10/04 05:23:04;;;;;;;4.60;1.40;;;14.60;87.00;;;;;;6198612;28;20419;-76
2021/10/04 05:26:07;;;;;;;2.63;1.40;;;14.60;87.30;;;;;;6197330;28;20840;-76
2021/10/04 05:29:09;;;;;;;4.32;1.50;;;14.60;87.10;;;;;;6197428;28;20422;-76
2021/10/04 05:32:11;;;;;;;4.45;1.70;;;14.50;86.90;;;;;;6197639;28;20938;-77
2021/10/04 05:35:13;;;;;;;7.88;1.92;;;14.50;87.60;;;;;;6199742;28;20442;-76
2021/10/04 05:38:15;;;;;;;5.60;1.80;;;14.50;87.30;;;;;;6218244;28;20905;-77
2021/10/04 05:41:20;;;;;;;3.70;1.58;;;14.40;87.40;;;;;;6221873;28;20419;-77
2021/10/04 05:44:21;;;;;;;1.50;1.30;;;14.40;87.50;;;;;;6210016;28;20517;-77
2021/10/04 05:47:23;;;;;;;3.85;1.63;;;14.40;87.40;;;;;;6197329;28;20512;-77
2021/10/04 05:50:26;;;;;;;2.93;1.53;;;14.30;87.50;;;;;;6197416;28;20497;-76
2021/10/04 05:53:27;;;;;;;3.28;1.15;;;14.30;87.70;;;;;;6196943;28;20422;-76
2021/10/04 05:56:31;;;;;;;1.65;1.30;;;14.30;88.00;;;;;;6172877;28;20472;-76
2021/10/04 05:59:32;;;;;;;1.50;0.98;;;14.30;87.90;;;;;;6172733;28;20471;-76
2021/10/04 06:02:34;;;;;;;2.97;1.27;;;14.30;87.90;;;;;;6173164;28;20424;-76
2021/10/04 06:05:36;;;;;;;2.30;1.13;;;14.30;87.80;;;;;;6172135;28;20548;-76
2021/10/04 06:08:38;;;;;;;2.60;1.70;;;14.30;87.70;;;;;;6172708;28;20501;-76
2021/10/04 06:11:41;;;;;;;2.95;1.30;;;14.30;87.70;;;;;;6172621;28;20506;-76
2021/10/04 06:14:43;;;;;;;2.05;1.30;;;14.30;88.30;;;;;;6181898;28;20421;-76
2021/10/04 06:17:45;;;;;;;3.80;1.45;;;14.30;87.60;;;;;;6196846;28;20442;-76
2021/10/04 06:20:47;;;;;;;4.30;1.20;;;14.30;87.80;;;;;;6196725;28;20512;-76
2021/10/04 06:23:49;;;;;;;1.55;1.38;;;14.30;87.90;;;;;;6196714;28;20426;-76
2021/10/04 06:26:52;;;;;;;1.43;1.23;;;14.30;87.60;;;;;;6196716;28;20426;-76
2021/10/04 06:29:54;;;;;;;8.27;1.80;;;14.40;87.50;;;;;;6196295;28;20426;-76
2021/10/04 06:32:56;;;;;;;2.85;1.30;;;14.40;87.60;;;;;;6212263;22;20529;-80
2021/10/04 06:35:58;;;;;;;1.85;1.50;;;14.40;87.40;;;;;;6201443;28;20498;-80
2021/10/04 06:38:59;;;;;;;2.08;1.30;;;14.40;87.10;;;;;;6184054;28;20487;-80
2021/10/04 06:42:03;;;;;;;2.60;1.42;;;14.40;87.30;;;;;;6178947;28;21052;-80
2021/10/04 06:45:06;;;;;;;4.10;1.52;;;14.40;87.10;;;;;;6155598;28;20441;-80
2021/10/04 06:48:08;;;;;;;4.70;1.40;;;14.50;87.10;;;;;;6166714;28;20452;-80
2021/10/04 06:51:10;;;;;;;2.33;1.27;;;14.50;87.40;;;;;;6152270;28;20515;-80
2021/10/04 06:54:12;;;;;;;1.65;1.20;;;14.50;87.40;;;;;;6154332;28;20457;-81
2021/10/04 06:57:15;;;;;;;5.00;1.48;;;14.50;87.40;;;;;;6154828;28;20423;-81
2021/10/04 07:00:20;;;;;;;3.85;1.38;;;14.40;87.30;;;;;;6153906;28;20524;-80
2021/10/04 07:03:22;;;;;;;3.80;1.48;;;14.40;87.30;;;;;;6154717;28;20422;-81
2021/10/04 07:06:24;;;;;;;2.97;1.40;;;14.40;87.30;;;;;;6153744;28;20425;-80
2021/10/04 07:09:26;;;;;;;3.08;1.85;;;14.40;87.40;;;;;;6154645;28;20469;-79
2021/10/04 07:12:29;;;;;;;3.10;1.50;;;14.40;87.30;;;;;;6155959;28;20536;-80
2021/10/04 07:15:31;;;;;;;2.28;1.33;;;14.40;87.50;;;;;;6154760;28;20443;-81
2021/10/04 07:18:33;;;;;;;3.17;1.77;;;14.40;88.10;;;;;;6167857;28;20473;-82
2021/10/04 07:21:35;;;;;;;4.18;1.70;;;14.40;87.60;;;;;;6175709;28;20469;-80
2021/10/04 07:24:37;;;;;;;4.93;2.08;;;14.40;87.90;;;;;;6158045;28;20473;-80
2021/10/04 07:27:41;;;;;;;4.03;2.13;;;14.40;87.60;;;;;;6157041;28;20510;-81
2021/10/04 07:30:43;;;;;;;3.40;2.07;;;14.50;87.80;;;;;;6157121;28;20605;-81
2021/10/04 07:33:45;;;;;;;5.32;1.85;;;14.40;87.70;;;;;;6156557;28;20426;-81
2021/10/04 07:36:47;;;;;;;5.07;2.73;;;14.50;87.60;;;;;;6159887;28;20522;-81
2021/10/04 07:39:49;;;;;;;4.82;2.53;;;14.50;87.60;;;;;;6164045;28;20436;-81
2021/10/04 07:42:52;;;;;;;4.70;2.05;;;14.60;87.60;;;;;;6173259;28;20420;-80
2021/10/04 07:45:54;;;;;;;3.50;2.25;;;14.60;87.20;;;;;;6188179;28;20443;-81
2021/10/04 07:48:56;;;;;;;4.13;2.40;;;14.60;87.40;;;;;;6203396;28;20442;-81
2021/10/04 07:52:00;;;;;;;4.30;1.90;;;14.60;87.10;;;;;;6204791;28;20533;-81
2021/10/04 07:55:02;;;;;;;2.25;1.70;;;14.50;86.60;;;;;;6195039;28;20858;-79
2021/10/04 07:58:05;;;;;;;3.30;2.00;;;14.50;87.50;;;;;;6180753;28;20523;-83
2021/10/04 08:01:07;;;;;;;3.00;1.55;;;14.50;87.40;;;;;;6178655;28;20538;-82
2021/10/04 08:04:10;;;;;;;2.80;1.98;;;14.50;86.90;;;;;;6156239;28;20528;-80
2021/10/04 08:07:12;;;;;;;4.45;2.15;;;14.50;86.80;;;;;;6150827;28;20421;-80
2021/10/04 08:10:14;;;;;;;3.78;2.13;;;14.60;87.10;;;;;;6155703;28;20630;-81
2021/10/04 08:13:17;;;;;;;5.78;1.77;;;14.60;87.00;;;;;;6157221;28;20901;-81
2021/10/04 08:16:21;;;;;;;2.28;1.70;;;14.60;87.20;;;;;;6182524;28;20543;-81
2021/10/04 08:19:25;;;;;;;4.63;1.50;;;14.60;87.00;;;;;;6204677;28;20434;-81
2021/10/04 08:22:27;;;;;;;2.22;1.30;;;14.60;86.80;;;;;;6203055;28;20512;-81
2021/10/04 08:25:29;;;;;;;3.55;1.50;;;14.70;87.10;;;;;;6203593;28;20422;-81
2021/10/04 08:28:33;;;;;;;9.20;2.85;;;14.70;86.50;;;;;;6203451;28;20438;-81
2021/10/04 08:31:34;;;;;;;4.97;2.55;;;14.70;87.10;;;;;;6202327;28;20847;-80
2021/10/04 08:34:36;;;;;;;6.40;2.05;;;14.70;86.60;;;;;;6202179;28;20453;-81
2021/10/04 08:37:38;;;;;;;1.73;1.00;;;14.70;86.10;;;;;;6202533;28;20937;-81
2021/10/04 08:40:40;;;;;;;2.25;1.13;;;14.60;86.20;;;;;;6177554;28;20531;-81
2021/10/04 08:43:44;;;;;;;3.85;1.67;;;14.70;86.40;;;;;;6154446;28;20432;-80
2021/10/04 08:46:47;;;;;;;3.17;1.33;;;14.60;86.80;;;;;;6160855;28;20428;-79
2021/10/04 08:49:49;;;;;;;6.18;1.77;;;14.60;86.50;;;;;;6152694;28;20639;-80
2021/10/04 08:52:51;;;;;;;2.85;1.35;;;14.60;86.50;;;;;;6169472;23;20438;-79
2021/10/04 08:55:52;;;;;;;2.45;1.63;;;14.60;86.60;;;;;;6200972;28;20430;-79
2021/10/04 08:58:56;;;;;;;2.40;1.33;;;14.70;86.90;;;;;;6200927;28;20807;-80
2021/10/04 09:02:19;;;;;;;3.25;1.33;;;14.70;86.80;;;;;;6202101;28;20426;-79
2021/10/04 09:05:23;;;;;;;10.30;2.83;;;14.80;86.40;;;;;;6176068;28;20809;-79
2021/10/04 09:08:25;;;;;;;2.60;1.67;;;14.70;86.50;;;;;;6177465;28;20526;-79
2021/10/04 09:11:36;;;;;;;4.63;1.38;;;14.80;86.70;;;;;;6176785;28;20430;-80
2021/10/04 09:14:39;;;;;;;8.85;1.50;;;14.90;86.80;;;;;;6176236;28;20427;-79
2021/10/04 09:17:41;;;;;;;7.07;1.20;;;14.90;86.20;;;;;;6174795;28;20916;-79
2021/10/04 09:20:52;;;;;;;2.33;0.93;;;14.90;85.70;;;;;;6200809;28;20448;-79
2021/10/04 09:23:56;;;;;;;3.13;1.35;;;14.90;85.40;;;;;;6225344;28;20442;-79
2021/10/04 09:26:58;;;;;;;3.13;1.10;;;15.00;86.00;;;;;;6226066;28;20794;-80
2021/10/04 09:30:04;;;;;;;3.38;1.75;;;15.00;85.90;;;;;;6224847;28;20444;-80
2021/10/04 09:33:06;;;;;;;3.55;1.52;;;15.00;86.10;;;;;;6224363;28;20910;-80
2021/10/04 09:36:18;;;;;;;7.30;1.70;;;15.10;85.70;;;;;;6225244;28;20510;-80
2021/10/04 09:39:25;;;;;;;9.13;1.50;;;15.20;86.10;;;;;;6222847;28;20416;-80
2021/10/04 09:42:27;;;;;;;5.18;1.42;;;15.20;84.90;;;;;;6225001;28;20534;-79
2021/10/04 09:45:30;;;;;;;2.40;1.35;;;15.30;85.60;;;;;;6222567;28;20423;-79
2021/10/04 09:48:33;;;;;;;8.13;3.28;;;15.30;85.50;;;;;;6219954;28;20917;-79
2021/10/04 09:51:35;;;;;;;5.85;1.55;;;15.40;85.90;;;;;;6223822;28;20467;-79
2021/10/04 09:54:44;;;;;;;1.27;0.97;;;15.50;85.30;;;;;;6224669;28;20659;-80
2021/10/04 09:58:02;;;;;;;1.10;0.90;;;15.70;84.90;;;;;;6224878;28;20975;-79
2021/10/04 10:01:05;;;;;;;5.63;1.63;;;15.70;84.50;;;;;;6224973;28;20452;-80
2021/10/04 10:04:08;;;;;;;6.22;2.03;;;15.80;84.90;;;;;;6225723;28;20472;-80
2021/10/04 10:07:10;;;;;;;10.00;2.35;;;15.90;84.50;;;;;;6225039;28;20908;-80
2021/10/04 10:10:12;;;;;;;4.30;1.40;;;16.00;83.50;;;;;;6224843;28;20420;-80
2021/10/04 10:13:15;;;;;;;2.83;1.58;;;16.20;83.80;;;;;;6225013;28;20440;-80
2021/10/04 10:16:23;;;;;;;2.78;1.67;;;16.30;82.10;;;;;;6217601;28;20516;-79
2021/10/04 10:19:30;;;;;;;8.23;1.35;;;16.40;82.80;;;;;;6224676;28;20437;-80
2021/10/04 10:22:45;;;;;;;1.90;1.00;;;16.40;81.40;;;;;;6224315;28;20432;-80
2021/10/04 10:25:47;;;;;;;5.82;1.40;;;16.50;81.70;;;;;;6222397;28;20417;-79
2021/10/04 10:28:48;;;;;;;4.93;1.42;;;16.40;80.10;;;;;;6221869;28;20470;-79
2021/10/04 10:32:07;;;;;;;1.00;0.90;;;16.40;80.70;;;;;;6222012;28;20490;-80
2021/10/04 10:35:09;;;;;;;6.63;2.20;;;16.40;80.90;;;;;;6221941;28;20547;-79
2021/10/04 10:38:10;;;;;;;0.95;0.95;;;16.30;81.30;;;;;;6222303;28;20421;-79
2021/10/04 10:41:16;;;;;;;2.58;1.52;;;16.30;81.60;;;;;;6207648;28;20428;-79
2021/10/04 10:44:18;;;;;;;1.58;1.00;;;16.30;82.50;;;;;;6218975;28;20510;-79
2021/10/04 10:47:51;;;;;;;1.75;1.23;;;16.40;82.50;;;;;;6207349;28;20474;-80
2021/10/04 10:50:53;;;;;;;1.63;1.20;;;16.40;82.00;;;;;;6220860;28;20940;-80
2021/10/04 10:53:54;;;;;;;3.65;1.60;;;16.50;80.80;;;;;;6223043;28;20510;-79
2021/10/04 10:56:56;;;;;;;1.13;1.00;;;16.50;80.20;;;;;;6222346;28;20515;-80
2021/10/04 11:00:18;;;;;;;8.80;1.48;;;16.50;81.80;;;;;;6221280;28;20464;-80
2021/10/04 11:03:23;;;;;;;2.87;1.40;;;16.60;80.10;;;;;;6220828;28;20471;-79
2021/10/04 11:06:41;;;;;;;3.28;1.95;;;16.60;81.50;;;;;;6220903;28;20416;-80
2021/10/04 11:10:06;;;;;;;1.75;1.40;;;16.70;81.10;;;;;;6221134;28;20425;-79
2021/10/04 11:13:21;;;;;;;1.67;1.10;;;16.70;80.90;;;;;;6220990;28;20539;-78
2021/10/04 11:16:38;;;;;;;115.32;12.18;;;16.70;81.20;;;;;;6212366;28;20509;-78
2021/10/04 11:19:42;;;;;;;1.85;0.90;;;16.70;80.40;;;;;;6219919;28;20482;-78
2021/10/04 11:22:44;;;;;;;1.50;1.00;;;16.80;80.20;;;;;;6223492;28;20425;-76
2021/10/04 11:25:48;;;;;;;3.90;1.27;;;16.70;80.90;;;;;;6222814;28;20998;-78
2021/10/04 11:28:52;;;;;;;6.00;4.45;;;16.70;81.00;;;;;;6222065;28;20527;-78
2021/10/04 11:31:54;;;;;;;207.40;24.60;;;16.70;82.20;;;;;;6221373;28;20575;-78
2021/10/04 11:35:10;;;;;;;152.15;16.45;;;16.80;81.30;;;;;;6221038;28;20892;-79
2021/10/04 11:38:12;;;;;;;2.40;1.30;;;16.80;80.90;;;;;;6220920;28;20515;-78
2021/10/04 11:41:14;;;;;;;2.25;1.10;;;16.80;81.20;;;;;;6214759;28;20975;-79
2021/10/04 11:44:20;;;;;;;1.38;1.17;;;16.80;80.90;;;;;;6215003;28;20911;-79
2021/10/04 11:47:22;;;;;;;2.40;1.20;;;16.80;80.90;;;;;;6203845;28;20425;-78
2021/10/04 11:50:26;;;;;;;2.95;1.15;;;16.80;80.40;;;;;;6195146;28;20770;-79
2021/10/04 11:53:29;;;;;;;3.60;1.30;;;16.80;80.20;;;;;;6196196;28;20513;-79
2021/10/04 11:56:38;;;;;;;1.65;0.88;;;16.90;80.60;;;;;;6196549;28;20927;-79
2021/10/04 11:59:51;;;;;;;2.13;1.02;;;16.80;78.70;;;;;;6195250;28;20974;-78
2021/10/04 12:02:54;;;;;;;2.30;1.20;;;16.90;79.80;;;;;;6196530;28;20414;-78
2021/10/04 12:05:58;;;;;;;1.55;1.15;;;16.90;80.40;;;;;;6199974;28;20422;-78
2021/10/04 12:09:01;;;;;;;3.72;1.48;;;17.00;80.30;;;;;;6199590;28;20520;-77
2021/10/04 12:12:04;;;;;;;6.87;1.73;;;17.10;79.80;;;;;;6200244;28;20641;-77
2021/10/04 12:15:07;;;;;;;3.53;1.52;;;17.20;79.50;;;;;;6206785;28;20417;-78
2021/10/04 12:18:14;;;;;;;2.85;1.50;;;17.30;79.50;;;;;;6215625;28;20496;-78
2021/10/04 12:21:20;;;;;;;4.47;2.13;;;17.40;79.00;;;;;;6223605;28;20421;-79
2021/10/04 12:24:24;;;;;;;39.17;4.05;;;17.50;78.60;;;;;;6224111;28;21233;-78
2021/10/04 12:27:26;;;;;;;13.35;1.70;;;17.60;77.80;;;;;;6223697;28;20551;-78
2021/10/04 12:30:41;;;;;;;8.32;1.48;;;17.60;76.20;;;;;;6222913;28;20786;-78
2021/10/04 12:33:45;;;;;;;2.67;1.65;;;17.60;77.50;;;;;;6224905;28;20506;-79
2021/10/04 12:36:49;;;;;;;23.05;3.70;;;17.50;77.90;;;;;;6226958;28;21032;-78
2021/10/04 12:39:51;;;;;;;4.45;1.55;;;17.50;76.40;;;;;;6226702;28;20898;-80
2021/10/04 12:43:00;;;;;;;14.60;3.90;;;17.30;78.00;;;;;;6215313;28;20430;-79
2021/10/04 12:46:07;;;;;;;8.65;2.05;;;17.30;78.50;;;;;;6216434;28;20921;-79
2021/10/04 12:49:19;;;;;;;23.77;3.70;;;17.30;77.60;;;;;;6224894;28;21098;-78
2021/10/04 12:52:24;;;;;;;3.40;1.45;;;17.30;77.90;;;;;;6227053;28;20519;-79
2021/10/04 12:55:26;;;;;;;13.10;2.88;;;17.40;78.60;;;;;;6226381;28;20472;-78
2021/10/04 12:58:30;;;;;;;6.57;1.85;;;17.50;77.30;;;;;;6227366;28;20444;-79
2021/10/04 13:01:32;;;;;;;52.70;9.48;;;17.60;77.20;;;;;;6227396;28;20555;-79
2021/10/04 13:04:35;;;;;;;10.90;2.78;;;17.60;77.50;;;;;;6227437;28;20431;-79
2021/10/04 13:07:39;;;;;;;20.23;3.35;;;17.90;76.10;;;;;;6226364;28;20541;-79
2021/10/04 13:10:40;;;;;;;54.00;8.43;;;17.90;75.50;;;;;;6226073;28;20811;-79
2021/10/04 13:13:42;;;;;;;2.80;1.17;;;17.90;75.30;;;;;;6226375;28;20506;-79
2021/10/04 13:16:45;;;;;;;1.35;0.95;;;18.10;75.10;;;;;;6217349;28;20479;-79
2021/10/04 13:19:51;;;;;;;6.50;1.42;;;18.10;74.00;;;;;;6225353;28;20545;-82
2021/10/04 13:22:54;;;;;;;2.60;1.02;;;18.20;73.40;;;;;;6224845;28;20409;-77
2021/10/04 13:25:57;;;;;;;1.38;0.98;;;18.10;72.90;;;;;;6224276;28;20876;-78
2021/10/04 13:28:59;;;;;;;1.08;0.98;;;18.10;74.30;;;;;;6223267;28;20516;-78
2021/10/04 13:32:01;;;;;;;1.15;0.73;;;18.10;73.20;;;;;;6223140;28;20441;-78
2021/10/04 13:35:04;;;;;;;1.65;1.10;;;18.10;74.10;;;;;;6232760;28;20443;-78
2021/10/04 13:38:07;;;;;;;1.40;0.77;;;18.10;73.40;;;;;;6210688;28;21058;-79
2021/10/04 13:41:10;;;;;;;3.20;1.00;;;18.20;72.30;;;;;;6224664;28;20629;-78
2021/10/04 13:44:12;;;;;;;1.30;0.70;;;18.30;72.60;;;;;;6221112;28;20543;-79
2021/10/04 13:47:13;;;;;;;2.05;0.93;;;18.40;72.30;;;;;;6209574;28;20885;-78
2021/10/04 13:50:15;;;;;;;7.27;1.17;;;18.50;71.80;;;;;;6225425;28;20473;-79
2021/10/04 13:53:18;;;;;;;2.35;1.15;;;18.60;70.30;;;;;;6225732;28;20425;-79
2021/10/04 13:56:22;;;;;;;1.27;0.80;;;18.60;72.10;;;;;;6225622;28;20949;-79
2021/10/04 13:59:24;;;;;;;2.50;0.75;;;18.60;71.50;;;;;;6225318;28;20429;-79
2021/10/04 14:02:26;;;;;;;2.55;1.00;;;18.50;70.50;;;;;;6225503;28;20558;-78
2021/10/04 14:05:28;;;;;;;0.88;0.68;;;18.50;72.60;;;;;;6225637;28;20440;-78
2021/10/04 14:08:31;;;;;;;1.73;0.73;;;18.50;71.10;;;;;;6223981;28;20536;-78
2021/10/04 14:11:33;;;;;;;0.57;0.50;;;18.50;71.00;;;;;;6224298;28;20512;-78
2021/10/04 14:14:35;;;;;;;1.08;0.80;;;18.50;71.00;;;;;;6218370;28;20483;-78
2021/10/04 14:17:38;;;;;;;0.93;0.70;;;18.50;70.10;;;;;;6215475;28;20466;-78
2021/10/04 14:20:40;;;;;;;0.98;0.70;;;18.50;70.70;;;;;;6225960;28;20536;-78
2021/10/04 14:23:44;;;;;;;0.77;0.55;;;18.50;70.80;;;;;;6225245;28;20483;-79
2021/10/04 14:26:45;;;;;;;1.50;0.80;;;18.50;71.80;;;;;;6225763;28;20475;-78
2021/10/04 14:29:47;;;;;;;3.83;1.27;;;18.40;72.00;;;;;;6216680;28;20515;-78
2021/10/04 14:32:49;;;;;;;0.95;0.90;;;18.40;71.00;;;;;;6201292;28;20434;-77
2021/10/04 14:35:51;;;;;;;1.05;0.73;;;18.30;71.80;;;;;;6197888;28;20963;-78
2021/10/04 14:38:55;;;;;;;0.90;0.75;;;18.20;71.40;;;;;;6196547;28;20471;-77
2021/10/04 14:41:57;;;;;;;0.60;0.50;;;18.20;72.20;;;;;;6196501;28;20943;-78
2021/10/04 14:44:59;;;;;;;1.42;0.85;;;18.10;71.00;;;;;;6209290;28;20509;-78
2021/10/04 14:48:01;;;;;;;1.13;1.02;;;18.10;72.10;;;;;;6214780;28;20483;-78
2021/10/04 14:51:03;;;;;;;1.17;0.70;;;18.10;71.80;;;;;;6223312;28;20551;-78
2021/10/04 14:54:07;;;;;;;1.60;0.60;;;18.00;72.50;;;;;;6222992;28;20909;-79
2021/10/04 14:57:09;;;;;;;0.82;0.80;;;18.00;72.50;;;;;;6221240;28;20457;-77
2021/10/04 15:00:12;;;;;;;4.00;3.55;;;18.10;72.70;;;;;;6222722;28;20522;-78
2021/10/04 15:03:14;;;;;;;1.33;0.98;;;18.10;72.30;;;;;;6222067;28;20460;-79
2021/10/04 15:06:16;;;;;;;2.93;0.80;;;18.10;72.10;;;;;;6221217;28;20467;-78
2021/10/04 15:09:19;;;;;;;0.98;0.70;;;18.20;72.00;;;;;;6222045;28;20431;-77
2021/10/04 15:12:21;;;;;;;2.45;1.60;;;18.20;72.20;;;;;;6221699;28;20578;-77
2021/10/04 15:15:23;;;;;;;1.52;0.98;;;18.30;71.00;;;;;;6219073;28;20852;-77
2021/10/04 15:18:25;;;;;;;1.33;0.70;;;18.20;70.20;;;;;;6215300;28;20424;-77
2021/10/04 15:21:27;;;;;;;1.35;1.00;;;18.10;70.10;;;;;;6220546;28;20544;-77
2021/10/04 15:24:30;;;;;;;1.70;0.77;;;18.00;70.10;;;;;;6221206;28;20494;-78
2021/10/04 15:27:32;;;;;;;0.88;0.75;;;18.10;70.00;;;;;;6220740;28;21045;-78
2021/10/04 15:30:34;;;;;;;1.42;0.70;;;18.00;70.50;;;;;;6220592;28;20790;-78
2021/10/04 15:33:37;;;;;;;2.75;0.80;;;18.00;71.60;;;;;;6221964;28;20494;-78
2021/10/04 15:36:39;;;;;;;2.10;0.80;;;18.00;71.90;;;;;;6221755;28;20923;-78
2021/10/04 15:39:42;;;;;;;1.10;0.80;;;18.00;72.80;;;;;;6224387;28;20961;-78
2021/10/04 15:42:44;;;;;;;1.40;1.02;;;18.00;70.80;;;;;;6225370;28;20450;-78
2021/10/04 15:45:46;;;;;;;0.82;0.82;;;18.10;71.20;;;;;;6221980;28;20431;-78
2021/10/04 15:48:48;;;;;;;3.20;1.10;;;18.00;71.80;;;;;;6221786;28;20536;-77
2021/10/04 15:51:51;;;;;;;2.45;0.80;;;17.80;74.20;;;;;;6225888;28;20952;-78